Time;durP1;ratioP1;P1;durP2;ratioP2;P2;SDS_P1;SDS_P2;PMS_P1;PMS_P2;Temp;Humidity;BMP_temperature;BMP_pressure;BME280_temperature;BME280_humidity;BME280_pressure;Samples;Min_cycle;Max_cycle;Signal;HPM_P1;HPM_P2
2023/08/08 00:02:21;;;;;;;2.20;1.30;;;;;;;30.21;38.13;100515.57;103828;1286;60622;-82
2023/08/08 00:04:49;;;;;;;1.90;1.40;;;;;;;30.21;38.29;100505.39;103861;1283;60502;-82
2023/08/08 00:07:15;;;;;;;2.10;1.40;;;;;;;30.21;38.29;100491.31;103873;1285;61381;-82
2023/08/08 00:09:41;;;;;;;2.20;1.40;;;;;;;30.20;38.26;100478.45;103893;1289;60552;-82
2023/08/08 00:12:07;;;;;;;2.30;1.50;;;;;;;30.20;38.24;100463.27;104019;1285;60582;-82
2023/08/08 00:14:32;;;;;;;2.60;1.40;;;;;;;30.20;38.27;100445.48;103877;1288;60588;-81
2023/08/08 00:16:58;;;;;;;1.60;1.30;;;;;;;30.20;38.33;100446.94;103868;1288;60600;-84
2023/08/08 00:19:23;;;;;;;2.20;1.30;;;;;;;30.19;38.29;100451.88;103916;1286;63808;-84
2023/08/08 00:21:49;;;;;;;1.90;1.30;;;;;;;30.19;38.28;100457.48;103867;1287;60579;-83
2023/08/08 00:24:14;;;;;;;2.40;1.50;;;;;;;30.19;38.18;100460.63;104102;1286;60503;-82
2023/08/08 00:26:40;;;;;;;2.20;1.40;;;;;;;30.19;38.25;100464.30;103888;1283;60584;-82
2023/08/08 00:29:06;;;;;;;2.80;1.60;;;;;;;30.19;38.36;100466.44;103964;1288;60604;-82
2023/08/08 00:31:31;;;;;;;1.90;1.30;;;;;;;30.18;38.30;100463.58;103960;1288;63815;-82
2023/08/08 00:33:57;;;;;;;1.60;1.40;;;;;;;30.18;38.21;100470.33;104035;1288;60575;-82
2023/08/08 00:36:23;;;;;;;1.90;1.20;;;;;;;30.18;38.41;100472.38;103804;1288;60665;-82
2023/08/08 00:38:49;;;;;;;2.10;1.50;;;;;;;30.18;38.30;100482.13;103889;1289;61005;-82
2023/08/08 00:41:14;;;;;;;1.60;1.30;;;;;;;30.18;38.51;100482.17;103940;1289;60399;-82
2023/08/08 00:43:40;;;;;;;2.20;1.40;;;;;;;30.18;38.43;100480.91;104013;1286;60496;-82
2023/08/08 00:46:05;;;;;;;2.50;1.50;;;;;;;30.17;38.48;100474.98;103819;1289;65149;-82
2023/08/08 00:48:31;;;;;;;2.10;1.50;;;;;;;30.18;38.59;100467.85;103869;1288;60547;-82
2023/08/08 00:50:56;;;;;;;2.30;1.40;;;;;;;30.17;38.57;100463.56;104058;1290;60591;-82
2023/08/08 00:53:31;;;;;;;2.30;1.40;;;;;;;30.17;38.61;100459.25;103936;1291;60556;-82
2023/08/08 00:55:56;;;;;;;2.30;1.50;;;;;;;30.16;38.68;100456.80;103868;1286;65040;-82
2023/08/08 00:58:22;;;;;;;2.10;1.40;;;;;;;30.17;38.59;100466.19;103925;1287;60712;-82
2023/08/08 01:00:47;;;;;;;1.80;1.30;;;;;;;30.17;38.63;100473.61;103936;1288;60601;-82
2023/08/08 01:03:13;;;;;;;1.90;1.30;;;;;;;30.17;38.69;100479.42;103945;1287;60588;-82
2023/08/08 01:05:44;;;;;;;2.00;1.30;;;;;;;30.17;38.58;100480.51;103881;1290;60792;-82
2023/08/08 01:08:09;;;;;;;2.60;1.50;;;;;;;30.16;38.86;100484.89;103843;1288;64994;-82
2023/08/08 01:10:40;;;;;;;2.10;1.40;;;;;;;30.16;38.85;100491.26;103995;1291;60458;-82
2023/08/08 01:13:08;;;;;;;2.80;1.60;;;;;;;30.16;38.89;100495.69;103931;1283;60591;-82
2023/08/08 01:15:35;;;;;;;;;;;;;;;30.15;38.88;100495.73;103877;1287;63670;-82
2023/08/08 01:18:07;;;;;;;2.30;1.30;;;;;;;30.12;38.88;100497.13;103816;1288;64989;-82
2023/08/08 01:20:33;;;;;;;2.30;1.40;;;;;;;30.13;38.90;100501.79;103942;1284;60552;-82
2023/08/08 01:23:08;;;;;;;2.30;1.30;;;;;;;30.13;38.96;100502.85;103878;1287;60472;-82
2023/08/08 01:25:33;;;;;;;2.20;1.50;;;;;;;30.12;38.90;100498.42;103751;1283;63869;-82
2023/08/08 01:27:59;;;;;;;2.20;1.50;;;;;;;30.14;38.91;100499.92;103799;1284;60608;-82
2023/08/08 01:30:25;;;;;;;1.80;1.50;;;;;;;30.13;39.01;100499.81;103871;1288;61198;-82
2023/08/08 01:32:50;;;;;;;2.30;1.60;;;;;;;30.13;39.02;100507.09;103858;1291;60617;-82
2023/08/08 01:35:16;;;;;;;2.20;1.60;;;;;;;30.13;38.88;100510.49;103873;1288;60752;-82
2023/08/08 01:37:48;;;;;;;2.20;1.40;;;;;;;30.13;39.03;100512.50;103800;1289;63725;-82
2023/08/08 01:40:15;;;;;;;2.30;1.50;;;;;;;30.12;39.09;100515.14;103741;1291;65071;-82
2023/08/08 01:42:41;;;;;;;2.50;1.50;;;;;;;30.12;38.89;100517.69;103708;1289;60593;-82
2023/08/08 01:45:08;;;;;;;3.10;1.50;;;;;;;30.12;38.98;100522.11;103623;1286;60477;-82
2023/08/08 01:47:34;;;;;;;2.20;1.50;;;;;;;30.11;39.05;100527.39;103756;1285;60573;-82
2023/08/08 01:50:00;;;;;;;3.30;1.50;;;;;;;30.11;38.94;100538.28;103944;1285;60613;-82
2023/08/08 01:52:25;;;;;;;1.60;1.30;;;;;;;30.12;39.00;100544.98;103804;1287;60595;-82
2023/08/08 01:54:51;;;;;;;2.20;1.50;;;;;;;30.11;39.16;100551.75;103776;1284;61069;-82
2023/08/08 01:57:16;;;;;;;3.20;1.50;;;;;;;30.12;39.05;100554.91;103757;1290;60565;-81
2023/08/08 01:59:45;;;;;;;2.80;1.70;;;;;;;30.12;39.28;100550.39;103756;1290;63825;-81
2023/08/08 02:02:10;;;;;;;2.30;1.60;;;;;;;30.12;39.39;100554.23;103740;1290;64962;-82
2023/08/08 02:04:36;;;;;;;2.40;1.70;;;;;;;30.11;39.23;100557.02;103532;1285;60539;-83
2023/08/08 02:07:02;;;;;;;1.80;1.40;;;;;;;30.11;39.23;100557.90;103716;1290;60572;-83
2023/08/08 02:09:27;;;;;;;1.80;1.50;;;;;;;30.10;39.15;100553.48;103791;1285;60541;-83
2023/08/08 02:11:53;;;;;;;2.50;1.60;;;;;;;30.11;39.08;100560.83;103849;1285;60837;-82
2023/08/08 02:14:18;;;;;;;2.80;1.50;;;;;;;30.10;39.35;100557.64;103741;1288;64795;-82
2023/08/08 02:16:44;;;;;;;2.80;1.60;;;;;;;30.10;39.24;100567.83;103895;1285;60564;-82
2023/08/08 02:19:09;;;;;;;2.20;1.50;;;;;;;30.10;39.30;100570.53;103806;1286;60504;-82
2023/08/08 02:21:35;;;;;;;2.20;1.40;;;;;;;30.10;39.32;100569.52;103821;1290;60509;-82
2023/08/08 02:24:00;;;;;;;3.10;1.70;;;;;;;30.10;39.22;100574.55;103574;1293;60628;-83
2023/08/08 02:26:26;;;;;;;2.30;1.60;;;;;;;30.09;39.33;100570.80;103706;1285;65045;-83
2023/08/08 02:28:51;;;;;;;2.10;1.50;;;;;;;30.09;39.37;100572.61;103684;1288;60508;-83
2023/08/08 02:31:20;;;;;;;2.80;1.60;;;;;;;30.09;39.28;100575.89;103328;1288;60583;-83
2023/08/08 02:33:52;;;;;;;2.20;1.50;;;;;;;30.08;39.41;100575.82;103665;1288;63632;-83
2023/08/08 02:36:18;;;;;;;2.50;1.50;;;;;;;30.08;39.43;100580.38;103662;1290;64851;-82
2023/08/08 02:38:44;;;;;;;2.40;1.50;;;;;;;30.08;39.46;100585.23;103430;1288;60589;-83
2023/08/08 02:41:10;;;;;;;2.50;1.50;;;;;;;30.08;39.59;100592.73;103668;1288;60659;-82
2023/08/08 02:43:35;;;;;;;2.90;1.60;;;;;;;30.08;39.44;100596.16;103316;1289;60583;-83
2023/08/08 02:46:01;;;;;;;2.40;1.40;;;;;;;30.08;39.40;100595.48;103627;1291;60975;-83
2023/08/08 02:48:27;;;;;;;2.00;1.50;;;;;;;30.07;39.43;100617.63;103300;1288;60493;-82
2023/08/08 02:50:52;;;;;;;2.30;1.50;;;;;;;30.07;39.62;100622.05;103767;1289;60594;-82
2023/08/08 02:53:19;;;;;;;2.50;1.60;;;;;;;30.07;39.65;100615.52;103527;1292;60639;-83
2023/08/08 02:55:45;;;;;;;3.20;1.60;;;;;;;30.07;39.71;100609.88;103469;1292;60675;-82
2023/08/08 02:58:10;;;;;;;2.30;1.60;;;;;;;30.07;39.62;100606.64;103686;1288;60555;-83
2023/08/08 03:00:36;;;;;;;2.90;1.70;;;;;;;30.06;39.55;100602.32;103696;1290;60660;-82
2023/08/08 03:03:04;;;;;;;1.80;1.40;;;;;;;30.06;39.65;100593.23;103827;1284;60598;-83
2023/08/08 03:05:30;;;;;;;2.40;1.50;;;;;;;30.06;39.61;100575.34;103798;1284;60509;-83
2023/08/08 03:07:55;;;;;;;2.40;1.40;;;;;;;30.06;39.67;100579.52;103770;1285;60704;-82
2023/08/08 03:10:21;;;;;;;2.50;1.60;;;;;;;30.06;39.66;100582.59;103856;1288;60576;-82
2023/08/08 03:12:46;;;;;;;2.60;1.70;;;;;;;30.06;39.56;100593.30;103889;1284;61756;-82
2023/08/08 03:15:12;;;;;;;2.40;1.40;;;;;;;30.06;39.65;100603.30;103796;1290;60582;-82
2023/08/08 03:17:38;;;;;;;3.50;1.50;;;;;;;30.05;39.51;100598.11;103805;1290;60490;-82
2023/08/08 03:20:06;;;;;;;1.90;1.30;;;;;;;30.06;39.64;100604.05;103757;1289;60622;-82
2023/08/08 03:22:32;;;;;;;2.70;1.60;;;;;;;30.05;39.82;100613.76;103899;1285;60660;-82
2023/08/08 03:24:58;;;;;;;2.30;1.60;;;;;;;30.05;39.76;100620.80;103821;1285;60473;-82
2023/08/08 03:27:25;;;;;;;2.50;1.60;;;;;;;30.05;39.68;100610.27;103807;1290;60534;-82
2023/08/08 03:29:51;;;;;;;3.50;1.60;;;;;;;30.05;39.75;100600.52;103695;1290;60639;-82
2023/08/08 03:32:16;;;;;;;2.40;1.50;;;;;;;30.05;39.71;100591.67;103871;1286;60435;-82
2023/08/08 03:34:42;;;;;;;1.80;1.30;;;;;;;30.04;39.63;100585.86;103824;1285;60566;-82
2023/08/08 03:37:07;;;;;;;2.10;1.50;;;;;;;30.04;39.63;100586.27;103742;1284;60612;-82
2023/08/08 03:39:33;;;;;;;1.70;1.20;;;;;;;30.04;39.78;100576.25;103807;1285;60582;-82
2023/08/08 03:41:59;;;;;;;2.10;1.50;;;;;;;30.04;39.91;100563.27;103369;1290;63894;-82
2023/08/08 03:44:24;;;;;;;2.30;1.40;;;;;;;30.04;39.88;100571.03;103691;1285;60656;-82
2023/08/08 03:46:50;;;;;;;3.60;1.60;;;;;;;30.04;39.84;100580.32;103749;1284;61369;-82
2023/08/08 03:49:17;;;;;;;2.50;1.40;;;;;;;30.03;39.86;100590.69;103846;1289;60608;-82
2023/08/08 03:51:43;;;;;;;2.60;1.50;;;;;;;30.03;39.95;100599.08;103713;1284;60903;-82
2023/08/08 03:54:08;;;;;;;2.90;1.30;;;;;;;30.03;40.01;100603.83;103714;1285;61010;-82
2023/08/08 03:56:34;;;;;;;2.60;1.60;;;;;;;30.03;39.84;100621.59;103845;1285;60539;-82
2023/08/08 03:58:59;;;;;;;3.20;1.60;;;;;;;30.03;39.91;100643.77;103850;1286;60505;-82
2023/08/08 04:01:25;;;;;;;2.60;1.40;;;;;;;30.03;39.89;100654.63;103781;1285;60585;-82
2023/08/08 04:03:50;;;;;;;3.50;1.70;;;;;;;30.03;39.76;100656.23;103759;1285;60610;-82
2023/08/08 04:06:16;;;;;;;2.40;1.50;;;;;;;30.03;39.79;100654.39;103747;1284;60776;-82
2023/08/08 04:08:41;;;;;;;3.50;1.80;;;;;;;30.03;39.87;100668.58;103725;1290;60583;-82
2023/08/08 04:11:07;;;;;;;5.10;1.70;;;;;;;30.02;39.72;100681.64;103713;1285;60375;-82
2023/08/08 04:13:33;;;;;;;3.20;1.50;;;;;;;30.01;39.83;100677.66;103720;1285;60588;-82
2023/08/08 04:16:01;;;;;;;3.80;1.90;;;;;;;29.99;39.63;100663.98;103659;1289;60575;-82
2023/08/08 04:18:26;;;;;;;3.80;1.70;;;;;;;29.96;39.45;100663.20;103765;1284;60518;-82
2023/08/08 04:20:53;;;;;;;4.90;1.90;;;;;;;29.93;39.37;100663.71;103850;1285;60556;-82
2023/08/08 04:23:19;;;;;;;3.90;2.10;;;;;;;29.90;39.24;100662.02;103755;1284;60495;-82
2023/08/08 04:25:44;;;;;;;4.90;2.00;;;;;;;29.88;39.27;100662.44;103680;1287;60496;-82
2023/08/08 04:28:10;;;;;;;6.90;2.00;;;;;;;29.86;39.13;100665.88;103713;1289;60479;-81
2023/08/08 04:30:36;;;;;;;6.10;1.80;;;;;;;29.85;38.99;100675.64;103785;1285;60465;-81
2023/08/08 04:33:01;;;;;;;5.20;1.90;;;;;;;29.83;38.89;100700.50;103735;1289;60672;-81
2023/08/08 04:35:27;;;;;;;4.10;1.90;;;;;;;29.82;38.81;100709.02;103700;1287;60581;-83
2023/08/08 04:37:52;;;;;;;3.50;1.80;;;;;;;29.81;38.65;100705.79;103715;1286;60508;-83
2023/08/08 04:40:18;;;;;;;2.30;1.60;;;;;;;29.80;38.57;100709.80;103735;1286;60569;-83
2023/08/08 04:42:43;;;;;;;6.50;1.90;;;;;;;29.78;38.42;100726.83;103712;1285;60587;-82
2023/08/08 04:45:09;;;;;;;4.10;1.60;;;;;;;29.77;38.23;100734.34;103705;1286;60661;-82
2023/08/08 04:47:35;;;;;;;5.10;2.00;;;;;;;29.76;38.28;100735.25;103728;1284;63832;-82
2023/08/08 04:50:00;;;;;;;3.30;1.90;;;;;;;29.74;38.21;100734.27;103697;1284;60611;-82
2023/08/08 04:52:26;;;;;;;3.50;2.00;;;;;;;29.73;38.21;100733.14;103808;1285;60579;-82
2023/08/08 04:54:51;;;;;;;3.50;1.80;;;;;;;29.72;38.21;100728.71;103748;1290;60620;-81
2023/08/08 04:57:17;;;;;;;5.10;2.00;;;;;;;29.71;38.04;100714.20;103765;1284;60707;-83
2023/08/08 04:59:42;;;;;;;4.50;2.20;;;;;;;29.71;38.00;100717.86;103734;1284;63979;-83
2023/08/08 05:02:08;;;;;;;4.80;2.10;;;;;;;29.70;37.98;100734.60;103805;1285;60645;-82
2023/08/08 05:04:33;;;;;;;5.60;1.90;;;;;;;29.70;37.84;100735.94;103904;1284;60632;-82
2023/08/08 05:06:59;;;;;;;3.40;2.10;;;;;;;29.69;37.92;100734.33;103772;1285;60642;-82
2023/08/08 05:09:27;;;;;;;6.10;2.50;;;;;;;29.67;37.81;100744.15;103920;1288;60504;-82
2023/08/08 05:11:53;;;;;;;4.50;2.10;;;;;;;29.64;37.46;100749.27;103773;1290;63720;-82
2023/08/08 05:14:19;;;;;;;3.70;2.20;;;;;;;29.60;37.61;100754.03;103811;1288;60583;-82
2023/08/08 05:16:44;;;;;;;3.30;2.30;;;;;;;29.57;37.65;100751.08;103642;1291;61349;-82
2023/08/08 05:19:10;;;;;;;4.50;2.20;;;;;;;29.56;37.37;100753.02;103850;1284;60594;-82
2023/08/08 05:21:35;;;;;;;3.80;2.20;;;;;;;29.55;37.41;100764.70;103944;1284;60645;-82
2023/08/08 05:24:01;;;;;;;6.00;2.20;;;;;;;29.53;37.30;100767.08;103856;1284;60630;-82
2023/08/08 05:26:26;;;;;;;5.10;2.30;;;;;;;29.49;37.37;100745.21;103922;1284;60578;-82
2023/08/08 05:28:52;;;;;;;15.40;2.80;;;;;;;29.45;37.19;100726.23;103945;1284;60559;-82
2023/08/08 05:31:17;;;;;;;3.80;2.30;;;;;;;29.41;37.22;100710.02;103978;1284;60704;-82
2023/08/08 05:33:43;;;;;;;3.60;2.00;;;;;;;29.38;37.32;100697.67;104080;1287;60509;-82
2023/08/08 05:36:08;;;;;;;8.60;3.50;;;;;;;29.35;37.28;100697.06;103765;1285;60658;-82
2023/08/08 05:38:34;;;;;;;8.50;4.30;;;;;;;29.34;37.18;100709.35;103703;1290;71764;-81
2023/08/08 05:40:59;;;;;;;9.30;3.80;;;;;;;29.34;37.46;100734.52;103941;1285;60610;-82
2023/08/08 05:43:27;;;;;;;7.80;2.90;;;;;;;29.34;37.63;100748.10;103665;1290;60562;-82
2023/08/08 05:45:55;;;;;;;4.40;2.70;;;;;;;29.34;37.51;100746.98;103744;1288;60659;-82
2023/08/08 05:48:20;;;;;;;4.80;2.90;;;;;;;29.35;37.47;100741.30;103711;1288;65044;-82
2023/08/08 05:50:46;;;;;;;4.90;2.50;;;;;;;29.36;37.38;100740.84;103800;1284;60604;-82
2023/08/08 05:53:11;;;;;;;4.90;2.60;;;;;;;29.35;37.44;100741.17;103663;1284;60675;-82
2023/08/08 05:55:37;;;;;;;4.80;2.50;;;;;;;29.33;37.42;100749.19;103766;1285;60583;-82
2023/08/08 05:58:04;;;;;;;5.40;2.60;;;;;;;29.32;37.46;100748.27;103723;1284;61104;-82
2023/08/08 06:00:30;;;;;;;4.70;2.60;;;;;;;29.34;37.48;100748.77;103864;1285;65048;-82
2023/08/08 06:02:55;;;;;;;4.90;2.50;;;;;;;29.35;37.20;100754.73;103888;1285;60546;-82
2023/08/08 06:05:23;;;;;;;6.10;2.70;;;;;;;29.34;37.26;100755.02;104171;1285;60478;-82
2023/08/08 06:07:49;;;;;;;5.00;2.50;;;;;;;29.31;37.21;100748.40;103985;1284;61214;-82
2023/08/08 06:10:14;;;;;;;7.40;3.00;;;;;;;29.30;37.22;100754.52;103868;1284;60641;-82
2023/08/08 06:12:40;;;;;;;6.50;2.60;;;;;;;29.29;37.09;100766.07;103819;1285;60620;-82
2023/08/08 06:15:07;;;;;;;4.80;2.40;;;;;;;29.30;37.09;100772.15;104253;1284;60493;-82
2023/08/08 06:17:32;;;;;;;3.40;2.10;;;;;;;29.31;37.09;100779.05;103958;1289;60552;-82
2023/08/08 06:19:58;;;;;;;4.60;2.20;;;;;;;29.33;37.19;100779.98;103827;1284;60583;-81
2023/08/08 06:22:23;;;;;;;5.70;2.50;;;;;;;29.35;37.18;100778.31;104036;1285;60583;-82
2023/08/08 06:24:49;;;;;;;5.30;2.50;;;;;;;29.35;37.28;100771.05;103838;1287;60524;-82
2023/08/08 06:27:15;;;;;;;5.20;2.50;;;;;;;29.35;37.21;100762.65;104277;1286;60611;-82
2023/08/08 06:29:41;;;;;;;4.60;2.30;;;;;;;29.31;36.91;100760.42;104052;1285;60473;-82
2023/08/08 06:32:07;;;;;;;4.80;2.30;;;;;;;29.24;37.00;100758.59;104138;1288;60523;-82
2023/08/08 06:34:33;;;;;;;6.70;2.90;;;;;;;29.20;37.21;100762.06;103920;1285;61081;-82
2023/08/08 06:37:02;;;;;;;4.80;2.70;;;;;;;29.16;37.13;100768.09;103861;1285;61137;-82
2023/08/08 06:39:27;;;;;;;4.60;2.40;;;;;;;29.13;37.11;100779.46;103893;1288;275980;-82
2023/08/08 06:41:53;;;;;;;4.40;2.50;;;;;;;29.11;36.98;100785.31;103845;1288;60616;-82
2023/08/08 06:44:18;;;;;;;5.90;2.60;;;;;;;29.09;37.09;100788.42;103573;1286;60617;-82
2023/08/08 06:46:44;;;;;;;5.40;2.80;;;;;;;29.08;37.09;100795.93;103850;1289;60632;-82
2023/08/08 06:49:10;;;;;;;7.60;2.60;;;;;;;29.09;36.94;100812.73;103662;1285;60524;-82
2023/08/08 06:51:37;;;;;;;4.60;2.50;;;;;;;29.08;37.08;100826.05;104242;1287;63849;-82
2023/08/08 06:54:03;;;;;;;5.10;2.30;;;;;;;29.08;37.00;100826.36;103698;1284;60588;-82
2023/08/08 06:56:29;;;;;;;5.50;2.50;;;;;;;29.04;36.79;100821.76;103870;1289;61756;-82
2023/08/08 06:58:55;;;;;;;4.20;2.50;;;;;;;29.04;36.95;100817.98;103838;1284;60632;-81
2023/08/08 07:01:20;;;;;;;6.00;2.30;;;;;;;29.06;36.93;100815.79;103815;1289;60600;-82
2023/08/08 07:03:46;;;;;;;6.10;2.50;;;;;;;29.04;36.96;100823.92;103715;1287;60594;-82
2023/08/08 07:06:12;;;;;;;5.50;2.70;;;;;;;29.04;36.74;100825.60;104018;1284;64973;-82
2023/08/08 07:08:39;;;;;;;6.50;2.30;;;;;;;29.05;36.83;100829.98;103821;1286;60652;-82
2023/08/08 07:11:05;;;;;;;6.90;2.50;;;;;;;29.08;37.00;100839.79;103741;1285;60577;-82
2023/08/08 07:13:32;;;;;;;5.50;2.30;;;;;;;29.10;37.13;100839.94;103733;1289;72161;-82
2023/08/08 07:15:58;;;;;;;5.40;2.40;;;;;;;29.10;37.10;100841.56;103840;1287;61169;-82
2023/08/08 07:18:24;;;;;;;5.80;2.90;;;;;;;29.09;36.92;100846.18;103748;1284;60470;-82
2023/08/08 07:20:49;;;;;;;6.20;2.70;;;;;;;29.09;36.88;100847.64;103747;1284;60694;-82
2023/08/08 07:23:16;;;;;;;5.50;2.70;;;;;;;29.10;36.74;100847.41;103737;1286;60512;-81
2023/08/08 07:25:42;;;;;;;5.70;2.60;;;;;;;29.10;36.88;100852.61;103747;1285;60557;-82
2023/08/08 07:28:08;;;;;;;5.50;2.50;;;;;;;29.10;36.85;100855.14;103814;1286;60674;-82
2023/08/08 07:30:35;;;;;;;5.10;2.80;;;;;;;29.08;36.83;100854.80;103864;1285;60626;-82
2023/08/08 07:33:00;;;;;;;4.10;2.60;;;;;;;29.08;37.07;100858.13;103767;1290;60654;-82
2023/08/08 07:35:27;;;;;;;5.90;2.60;;;;;;;29.08;36.89;100864.83;103868;1285;60947;-82
2023/08/08 07:37:54;;;;;;;4.80;2.90;;;;;;;29.06;36.94;100863.21;103752;1287;64842;-82
2023/08/08 07:40:20;;;;;;;5.40;2.70;;;;;;;29.04;36.91;100848.23;103657;1286;60597;-82
2023/08/08 07:42:49;;;;;;;3.80;2.80;;;;;;;29.01;36.72;100849.02;103854;1284;60527;-83
2023/08/08 07:45:15;;;;;;;5.80;2.90;;;;;;;28.99;36.97;100853.13;103671;1284;63793;-82
2023/08/08 07:47:40;;;;;;;5.20;2.90;;;;;;;28.97;36.94;100848.77;103693;1284;60564;-82
2023/08/08 07:50:08;;;;;;;4.50;3.10;;;;;;;28.95;36.84;100836.65;103931;1285;60630;-82
2023/08/08 07:52:38;;;;;;;8.70;3.10;;;;;;;28.92;36.81;100828.77;103903;1287;60587;-82
2023/08/08 07:55:04;;;;;;;7.20;3.40;;;;;;;28.92;36.98;100831.30;103878;1285;63804;-82
2023/08/08 07:57:31;;;;;;;7.30;3.60;;;;;;;28.92;36.77;100834.91;103686;1289;60676;-82
2023/08/08 07:59:57;;;;;;;5.50;3.70;;;;;;;28.93;36.73;100829.94;103742;1284;60605;-82
2023/08/08 08:02:22;;;;;;;6.70;3.70;;;;;;;28.95;36.74;100827.23;104025;1284;60595;-81
2023/08/08 08:04:48;;;;;;;4.60;3.40;;;;;;;28.94;36.77;100830.77;104121;1285;60476;-82
2023/08/08 08:07:13;;;;;;;6.50;3.40;;;;;;;28.94;36.70;100830.06;104219;1284;60489;-82
2023/08/08 08:09:42;;;;;;;5.00;3.50;;;;;;;28.94;36.70;100838.04;104248;1287;61863;-81
2023/08/08 08:12:08;;;;;;;6.10;3.60;;;;;;;28.93;36.58;100846.05;104249;1286;60561;-81
2023/08/08 08:14:34;;;;;;;5.90;3.60;;;;;;;28.92;36.49;100838.95;104178;1284;60482;-82
2023/08/08 08:16:59;;;;;;;7.10;3.50;;;;;;;28.91;36.59;100834.29;103993;1285;60502;-82
2023/08/08 08:19:25;;;;;;;7.90;3.40;;;;;;;28.90;36.76;100835.63;103965;1284;60579;-82
2023/08/08 08:21:51;;;;;;;6.80;3.70;;;;;;;28.90;36.65;100841.08;104023;1284;60455;-81
2023/08/08 08:24:16;;;;;;;4.40;3.30;;;;;;;28.90;36.84;100844.73;104008;1284;60444;-81
2023/08/08 08:26:42;;;;;;;5.20;3.50;;;;;;;28.90;36.89;100844.16;104083;1288;60505;-81
2023/08/08 08:29:07;;;;;;;6.10;3.70;;;;;;;28.90;36.65;100842.20;103971;1291;60497;-82
2023/08/08 08:31:33;;;;;;;5.70;3.00;;;;;;;28.92;36.59;100835.12;104020;1286;60591;-82
2023/08/08 08:33:59;;;;;;;6.50;3.20;;;;;;;28.93;36.63;100840.41;104119;1284;61135;-82
2023/08/08 08:36:25;;;;;;;5.60;3.40;;;;;;;28.95;36.71;100847.17;103886;1285;60576;-81
2023/08/08 08:38:52;;;;;;;7.00;3.40;;;;;;;28.96;36.71;100853.05;104020;1285;60466;-82
2023/08/08 08:41:19;;;;;;;6.80;3.70;;;;;;;28.97;36.65;100854.80;103733;1291;60596;-82
2023/08/08 08:43:45;;;;;;;5.00;3.70;;;;;;;28.97;36.55;100857.48;103849;1285;64811;-81
2023/08/08 08:46:14;;;;;;;5.00;3.60;;;;;;;28.96;36.63;100855.91;103916;1284;61291;-81
2023/08/08 08:48:41;;;;;;;4.50;3.30;;;;;;;28.96;36.60;100854.86;104005;1285;60452;-82
2023/08/08 08:51:06;;;;;;;4.60;3.40;;;;;;;28.97;36.47;100848.00;103959;1290;60518;-82
2023/08/08 08:53:32;;;;;;;7.10;4.00;;;;;;;28.99;36.51;100849.79;103987;1286;60665;-81
2023/08/08 08:55:58;;;;;;;4.70;3.90;;;;;;;29.00;36.41;100853.87;104063;1287;60595;-81
2023/08/08 08:58:24;;;;;;;5.90;3.70;;;;;;;28.99;36.60;100849.41;104073;1286;60586;-82
2023/08/08 09:00:50;;;;;;;5.10;3.80;;;;;;;29.01;36.72;100846.50;104227;1285;61170;-81
2023/08/08 09:03:15;;;;;;;5.40;3.80;;;;;;;29.03;36.57;100844.27;104016;1286;60486;-82
2023/08/08 09:05:41;;;;;;;7.90;3.80;;;;;;;29.04;36.57;100844.62;104287;1284;65071;-82
2023/08/08 09:08:08;;;;;;;5.80;4.10;;;;;;;29.00;36.28;100840.83;104234;1285;60709;-82
2023/08/08 09:10:35;;;;;;;6.20;4.00;;;;;;;28.96;36.41;100844.13;104091;1284;60514;-82
2023/08/08 09:13:01;;;;;;;6.20;4.00;;;;;;;28.93;36.44;100845.03;104084;1286;61063;-82
2023/08/08 09:15:35;;;;;;;6.80;4.00;;;;;;;28.94;36.45;100846.56;103989;1288;60591;-82
2023/08/08 09:18:01;;;;;;;7.20;4.20;;;;;;;28.97;36.31;100841.65;104101;1285;60484;-82
2023/08/08 09:20:30;;;;;;;5.70;4.10;;;;;;;29.01;36.46;100832.57;104041;1285;60599;-82
2023/08/08 09:22:56;;;;;;;;;;;;;;;29.04;36.61;100834.02;103837;1285;63746;-82
2023/08/08 09:25:23;;;;;;;5.70;4.50;;;;;;;29.05;36.54;100833.82;103780;1289;60557;-83
2023/08/08 09:27:55;;;;;;;6.10;4.20;;;;;;;29.08;36.45;100837.43;103809;1284;60609;-81
2023/08/08 09:30:20;;;;;;;4.20;3.80;;;;;;;29.11;36.28;100843.50;103973;1288;60518;-82
2023/08/08 09:32:46;;;;;;;5.20;4.20;;;;;;;29.13;36.46;100843.40;104073;1284;60603;-82
2023/08/08 09:35:12;;;;;;;5.50;3.90;;;;;;;29.15;36.43;100842.14;103518;1285;60863;-82
2023/08/08 09:37:38;;;;;;;5.90;4.50;;;;;;;29.17;36.25;100849.04;104047;1285;60567;-83
2023/08/08 09:40:05;;;;;;;6.50;4.20;;;;;;;29.19;36.26;100852.64;103936;1284;60563;-82
2023/08/08 09:42:31;;;;;;;5.10;4.40;;;;;;;29.21;36.21;100854.21;103850;1286;60567;-83
2023/08/08 09:44:57;;;;;;;7.10;4.40;;;;;;;29.23;36.23;100855.66;103896;1285;60500;-83
2023/08/08 09:47:24;;;;;;;4.90;4.40;;;;;;;29.24;36.33;100862.54;103904;1288;60605;-82
2023/08/08 09:49:50;;;;;;;5.50;3.90;;;;;;;29.27;36.30;100858.49;103912;1284;60507;-82
2023/08/08 09:52:17;;;;;;;4.70;4.20;;;;;;;29.29;36.14;100864.66;103798;1285;60571;-83
2023/08/08 09:54:43;;;;;;;4.90;4.20;;;;;;;29.31;36.22;100861.20;103886;1288;60562;-82
2023/08/08 09:57:09;;;;;;;4.70;4.00;;;;;;;29.32;36.33;100861.30;103955;1290;60532;-83
2023/08/08 09:59:35;;;;;;;10.80;4.30;;;;;;;29.32;36.14;100867.21;103930;1284;60473;-83
2023/08/08 10:02:01;;;;;;;4.40;4.00;;;;;;;29.34;36.20;100869.36;103919;1285;60481;-83
2023/08/08 10:04:27;;;;;;;6.50;4.50;;;;;;;29.35;36.24;100864.55;103822;1284;60547;-83
2023/08/08 10:06:52;;;;;;;6.00;4.40;;;;;;;29.36;36.25;100859.73;103926;1287;61151;-82
2023/08/08 10:09:18;;;;;;;6.40;4.60;;;;;;;29.37;36.32;100864.36;104003;1286;60606;-83
2023/08/08 10:11:44;;;;;;;4.90;4.10;;;;;;;29.38;35.98;100868.02;103961;1285;60963;-82
2023/08/08 10:14:10;;;;;;;5.30;4.20;;;;;;;29.39;36.10;100863.92;104014;1287;60485;-82
2023/08/08 10:16:37;;;;;;;5.30;4.10;;;;;;;29.40;36.03;100867.66;104088;1284;60471;-82
2023/08/08 10:19:03;;;;;;;4.80;4.10;;;;;;;29.41;35.94;100868.84;103720;1285;66042;-82
2023/08/08 10:21:42;;;;;;;7.30;4.20;;;;;;;29.41;36.14;100874.02;103895;1287;60571;-83
2023/08/08 10:24:08;;;;;;;;;;;;;;;29.42;36.03;100882.48;104085;1286;60716;-83
2023/08/08 10:26:34;;;;;;;5.60;4.00;;;;;;;29.40;36.04;100893.02;104145;1284;60551;-83
2023/08/08 10:29:01;;;;;;;5.20;4.10;;;;;;;29.41;36.10;100895.23;104115;1285;60570;-82
2023/08/08 10:31:27;;;;;;;5.10;4.00;;;;;;;29.42;36.11;100896.83;104112;1284;60605;-83
2023/08/08 10:34:04;;;;;;;4.70;3.90;;;;;;;29.43;36.02;100901.09;103820;1291;60513;-83
2023/08/08 10:36:45;;;;;;;4.30;3.60;;;;;;;29.43;36.10;100900.13;103886;1286;63643;-83
2023/08/08 10:39:15;;;;;;;5.60;4.00;;;;;;;29.44;36.31;100903.87;104229;1286;64808;-82
2023/08/08 10:41:44;;;;;;;5.10;4.00;;;;;;;29.44;36.00;100900.95;103988;1285;60494;-83
2023/08/08 10:44:10;;;;;;;5.60;3.70;;;;;;;29.45;35.85;100897.79;104135;1288;60899;-82
2023/08/08 10:46:40;;;;;;;5.60;3.90;;;;;;;29.46;36.10;100897.89;104350;1285;60997;-82
2023/08/08 10:49:05;;;;;;;6.00;4.00;;;;;;;29.46;35.91;100896.61;104030;1287;65031;-82
2023/08/08 10:51:39;;;;;;;4.30;3.50;;;;;;;29.47;35.97;100901.92;103973;1286;61126;-83
2023/08/08 10:54:12;;;;;;;6.20;3.60;;;;;;;29.47;36.08;100901.20;103976;1286;60529;-83
2023/08/08 10:56:38;;;;;;;5.10;3.50;;;;;;;29.48;36.10;100905.98;103981;1284;63918;-83
2023/08/08 10:59:17;;;;;;;5.40;3.50;;;;;;;29.48;35.99;100902.68;103948;1285;60587;-82
2023/08/08 11:01:44;;;;;;;4.60;3.40;;;;;;;29.48;35.98;100901.05;103872;1285;60583;-83
2023/08/08 11:04:11;;;;;;;4.60;3.10;;;;;;;29.49;35.94;100898.05;104136;1284;60571;-83
2023/08/08 11:06:36;;;;;;;5.60;3.30;;;;;;;29.49;35.87;100891.66;103836;1285;60557;-83
2023/08/08 11:09:05;;;;;;;4.20;3.10;;;;;;;29.50;35.85;100899.39;104082;1285;60642;-82
2023/08/08 11:11:36;;;;;;;;;;;;;;;29.50;36.02;100895.70;103938;1287;60645;-83
2023/08/08 11:14:12;;;;;;;5.00;3.30;;;;;;;29.49;35.86;100898.46;103844;1284;60440;-83